Terminal Aerodrome Forecast
Issued by NWS

Home | Current Version | Previous Version | Text Only | Print | Product List | Glossary On
Versions: 1 2 3 4 5 6 7 8 9 10 11 12
000
FTUS45 KRIW 222333
TAFCOD
TAF
KCOD 222333Z 2300/2324 02008KT P6SM SCT090
     FM230700 36014G26KT P6SM SCT060 BKN090
     FM231100 35016G28KT P6SM VCSH SCT015 BKN025 OVC035
     FM231400 36018G30KT 4SM -SHSN BKN015 OVC025
     FM231900 36020G30KT P6SM VCSH SCT015 BKN045 OVC150
      AMD LTD TO CLD VIS AND WIND=

USA.gov is the U.S. government's official web portal to all federal, state and local government web resources and services.